sensor_id;sensor_type;location;lat;lon;timestamp;temperature;humidity
10433;DHT22;5263;48.680;9.004;2023-07-30T00:01:31;17.50;99.90
10433;DHT22;5263;48.680;9.004;2023-07-30T00:03:58;17.40;99.90
10433;DHT22;5263;48.680;9.004;2023-07-30T00:06:24;17.40;99.90
10433;DHT22;5263;48.680;9.004;2023-07-30T00:08:50;17.40;99.90
10433;DHT22;5263;48.680;9.004;2023-07-30T00:11:16;17.40;99.90
10433;DHT22;5263;48.680;9.004;2023-07-30T00:13:41;17.40;99.90
10433;DHT22;5263;48.680;9.004;2023-07-30T00:16:07;17.40;99.90
10433;DHT22;5263;48.680;9.004;2023-07-30T00:18:33;17.30;99.90
10433;DHT22;5263;48.680;9.004;2023-07-30T00:20:58;17.40;99.90
10433;DHT22;5263;48.680;9.004;2023-07-30T00:23:24;17.40;99.90
10433;DHT22;5263;48.680;9.004;2023-07-30T00:25:49;17.30;99.90
10433;DHT22;5263;48.680;9.004;2023-07-30T00:28:15;17.30;99.90
10433;DHT22;5263;48.680;9.004;2023-07-30T00:30:40;17.30;99.90
10433;DHT22;5263;48.680;9.004;2023-07-30T00:33:06;17.30;99.90
10433;DHT22;5263;48.680;9.004;2023-07-30T00:35:32;17.30;99.90
10433;DHT22;5263;48.680;9.004;2023-07-30T00:37:57;17.30;99.90
10433;DHT22;5263;48.680;9.004;2023-07-30T00:40:23;17.20;99.90
10433;DHT22;5263;48.680;9.004;2023-07-30T00:42:48;17.20;99.90
10433;DHT22;5263;48.680;9.004;2023-07-30T00:45:14;17.20;99.90
10433;DHT22;5263;48.680;9.004;2023-07-30T00:47:40;17.10;99.90
10433;DHT22;5263;48.680;9.004;2023-07-30T00:50:07;17.10;99.90
10433;DHT22;5263;48.680;9.004;2023-07-30T00:52:33;17.00;99.90
10433;DHT22;5263;48.680;9.004;2023-07-30T00:55:02;16.90;99.90
10433;DHT22;5263;48.680;9.004;2023-07-30T00:57:28;17.00;99.90
10433;DHT22;5263;48.680;9.004;2023-07-30T00:59:54;17.10;99.90
10433;DHT22;5263;48.680;9.004;2023-07-30T01:02:21;17.10;99.90
10433;DHT22;5263;48.680;9.004;2023-07-30T01:04:47;17.20;99.90
10433;DHT22;5263;48.680;9.004;2023-07-30T01:07:13;17.30;99.90
10433;DHT22;5263;48.680;9.004;2023-07-30T01:09:38;17.30;99.90
10433;DHT22;5263;48.680;9.004;2023-07-30T01:12:05;17.30;99.90
10433;DHT22;5263;48.680;9.004;2023-07-30T01:14:32;17.30;99.90
10433;DHT22;5263;48.680;9.004;2023-07-30T01:16:58;17.10;99.90
10433;DHT22;5263;48.680;9.004;2023-07-30T01:19:24;17.10;99.90
10433;DHT22;5263;48.680;9.004;2023-07-30T01:21:50;17.10;99.90
10433;DHT22;5263;48.680;9.004;2023-07-30T01:24:15;17.00;99.90
10433;DHT22;5263;48.680;9.004;2023-07-30T01:26:46;17.00;99.90
10433;DHT22;5263;48.680;9.004;2023-07-30T01:29:27;17.00;99.90
10433;DHT22;5263;48.680;9.004;2023-07-30T01:31:57;16.90;99.90
10433;DHT22;5263;48.680;9.004;2023-07-30T01:34:28;16.90;99.90
10433;DHT22;5263;48.680;9.004;2023-07-30T01:36:57;16.90;99.90
10433;DHT22;5263;48.680;9.004;2023-07-30T01:39:23;16.80;99.90
10433;DHT22;5263;48.680;9.004;2023-07-30T01:41:49;16.60;99.90
10433;DHT22;5263;48.680;9.004;2023-07-30T01:44:15;16.70;99.90
10433;DHT22;5263;48.680;9.004;2023-07-30T01:46:40;16.50;99.90
10433;DHT22;5263;48.680;9.004;2023-07-30T01:49:06;16.50;99.90
10433;DHT22;5263;48.680;9.004;2023-07-30T01:51:31;16.50;99.90
10433;DHT22;5263;48.680;9.004;2023-07-30T01:53:57;16.50;99.90
10433;DHT22;5263;48.680;9.004;2023-07-30T01:56:22;16.60;99.90
10433;DHT22;5263;48.680;9.004;2023-07-30T01:58:48;16.50;99.90
10433;DHT22;5263;48.680;9.004;2023-07-30T02:01:14;16.40;99.90
10433;DHT22;5263;48.680;9.004;2023-07-30T02:03:40;16.50;99.90
10433;DHT22;5263;48.680;9.004;2023-07-30T02:06:05;16.50;99.90
10433;DHT22;5263;48.680;9.004;2023-07-30T02:08:31;16.50;99.90
10433;DHT22;5263;48.680;9.004;2023-07-30T02:10:58;16.40;99.90
10433;DHT22;5263;48.680;9.004;2023-07-30T02:13:24;16.40;99.90
10433;DHT22;5263;48.680;9.004;2023-07-30T02:15:50;16.30;99.90
10433;DHT22;5263;48.680;9.004;2023-07-30T02:18:15;16.20;99.90
10433;DHT22;5263;48.680;9.004;2023-07-30T02:20:41;16.30;99.90
10433;DHT22;5263;48.680;9.004;2023-07-30T02:23:07;16.30;99.90
10433;DHT22;5263;48.680;9.004;2023-07-30T02:25:33;16.20;99.90
10433;DHT22;5263;48.680;9.004;2023-07-30T02:27:59;16.20;99.90
10433;DHT22;5263;48.680;9.004;2023-07-30T02:30:26;16.20;99.90
10433;DHT22;5263;48.680;9.004;2023-07-30T02:32:52;16.30;99.90
10433;DHT22;5263;48.680;9.004;2023-07-30T02:35:17;16.40;99.90
10433;DHT22;5263;48.680;9.004;2023-07-30T02:37:43;16.40;99.90
10433;DHT22;5263;48.680;9.004;2023-07-30T02:40:09;16.40;99.90
10433;DHT22;5263;48.680;9.004;2023-07-30T02:42:35;16.20;99.90
10433;DHT22;5263;48.680;9.004;2023-07-30T02:45:00;16.30;99.90
10433;DHT22;5263;48.680;9.004;2023-07-30T02:47:26;16.30;99.90
10433;DHT22;5263;48.680;9.004;2023-07-30T02:49:52;16.10;99.90
10433;DHT22;5263;48.680;9.004;2023-07-30T02:52:17;16.30;99.90
10433;DHT22;5263;48.680;9.004;2023-07-30T02:54:43;16.20;99.90
10433;DHT22;5263;48.680;9.004;2023-07-30T02:57:08;16.20;99.90
10433;DHT22;5263;48.680;9.004;2023-07-30T02:59:35;16.40;99.90
10433;DHT22;5263;48.680;9.004;2023-07-30T03:02:03;16.40;99.90
10433;DHT22;5263;48.680;9.004;2023-07-30T03:04:30;16.50;99.90
10433;DHT22;5263;48.680;9.004;2023-07-30T03:06:56;16.50;99.90
10433;DHT22;5263;48.680;9.004;2023-07-30T03:09:22;16.50;99.90
10433;DHT22;5263;48.680;9.004;2023-07-30T03:11:49;16.40;99.90
10433;DHT22;5263;48.680;9.004;2023-07-30T03:14:15;16.50;99.90
10433;DHT22;5263;48.680;9.004;2023-07-30T03:16:40;16.50;99.90
10433;DHT22;5263;48.680;9.004;2023-07-30T03:19:06;16.50;99.90
10433;DHT22;5263;48.680;9.004;2023-07-30T03:21:31;16.40;99.90
10433;DHT22;5263;48.680;9.004;2023-07-30T03:23:57;16.30;99.90
10433;DHT22;5263;48.680;9.004;2023-07-30T03:26:23;16.20;99.90
10433;DHT22;5263;48.680;9.004;2023-07-30T03:28:48;16.20;99.90
10433;DHT22;5263;48.680;9.004;2023-07-30T03:31:14;16.10;99.90
10433;DHT22;5263;48.680;9.004;2023-07-30T03:33:40;16.10;99.90
10433;DHT22;5263;48.680;9.004;2023-07-30T03:36:13;16.20;99.90
10433;DHT22;5263;48.680;9.004;2023-07-30T03:38:39;16.30;99.90
10433;DHT22;5263;48.680;9.004;2023-07-30T03:41:05;16.30;99.90
10433;DHT22;5263;48.680;9.004;2023-07-30T03:43:32;16.40;99.90
10433;DHT22;5263;48.680;9.004;2023-07-30T03:45:57;16.50;99.90
10433;DHT22;5263;48.680;9.004;2023-07-30T03:48:23;16.60;99.90
10433;DHT22;5263;48.680;9.004;2023-07-30T03:50:48;16.50;99.90
10433;DHT22;5263;48.680;9.004;2023-07-30T03:53:14;16.50;99.90
10433;DHT22;5263;48.680;9.004;2023-07-30T03:55:40;16.50;99.90
10433;DHT22;5263;48.680;9.004;2023-07-30T03:58:06;16.50;99.90
10433;DHT22;5263;48.680;9.004;2023-07-30T04:00:31;16.50;99.90
10433;DHT22;5263;48.680;9.004;2023-07-30T04:02:57;16.30;99.90
10433;DHT22;5263;48.680;9.004;2023-07-30T04:05:23;16.30;99.90
10433;DHT22;5263;48.680;9.004;2023-07-30T04:07:49;16.30;99.90
10433;DHT22;5263;48.680;9.004;2023-07-30T04:10:14;16.40;99.90
10433;DHT22;5263;48.680;9.004;2023-07-30T04:12:40;16.50;99.90
10433;DHT22;5263;48.680;9.004;2023-07-30T04:15:06;16.50;99.90
10433;DHT22;5263;48.680;9.004;2023-07-30T04:17:32;16.40;99.90
10433;DHT22;5263;48.680;9.004;2023-07-30T04:19:57;16.40;99.90
10433;DHT22;5263;48.680;9.004;2023-07-30T04:22:23;16.30;99.90
10433;DHT22;5263;48.680;9.004;2023-07-30T04:24:49;16.20;99.90
10433;DHT22;5263;48.680;9.004;2023-07-30T04:27:15;16.30;99.90
10433;DHT22;5263;48.680;9.004;2023-07-30T04:29:40;16.30;99.90
10433;DHT22;5263;48.680;9.004;2023-07-30T04:32:06;16.20;99.90
10433;DHT22;5263;48.680;9.004;2023-07-30T04:34:32;16.30;99.90
10433;DHT22;5263;48.680;9.004;2023-07-30T04:36:57;16.30;99.90
10433;DHT22;5263;48.680;9.004;2023-07-30T04:39:23;16.30;99.90
10433;DHT22;5263;48.680;9.004;2023-07-30T04:41:49;16.20;99.90
10433;DHT22;5263;48.680;9.004;2023-07-30T04:44:14;16.30;99.90
10433;DHT22;5263;48.680;9.004;2023-07-30T04:46:40;16.50;99.90
10433;DHT22;5263;48.680;9.004;2023-07-30T04:49:05;16.50;99.90
10433;DHT22;5263;48.680;9.004;2023-07-30T04:51:31;16.40;99.90
10433;DHT22;5263;48.680;9.004;2023-07-30T04:53:56;16.50;99.90
10433;DHT22;5263;48.680;9.004;2023-07-30T04:56:22;16.60;99.90
10433;DHT22;5263;48.680;9.004;2023-07-30T04:58:48;16.60;99.90
10433;DHT22;5263;48.680;9.004;2023-07-30T05:01:13;16.60;99.90
10433;DHT22;5263;48.680;9.004;2023-07-30T05:03:39;16.50;99.90
10433;DHT22;5263;48.680;9.004;2023-07-30T05:06:05;16.50;99.90
10433;DHT22;5263;48.680;9.004;2023-07-30T05:08:30;16.50;99.90
10433;DHT22;5263;48.680;9.004;2023-07-30T05:10:56;16.40;99.90
10433;DHT22;5263;48.680;9.004;2023-07-30T05:13:21;16.50;99.90
10433;DHT22;5263;48.680;9.004;2023-07-30T05:15:47;16.50;99.90
10433;DHT22;5263;48.680;9.004;2023-07-30T05:18:12;16.70;99.90
10433;DHT22;5263;48.680;9.004;2023-07-30T05:20:39;16.70;99.90
10433;DHT22;5263;48.680;9.004;2023-07-30T05:23:04;16.70;99.90
10433;DHT22;5263;48.680;9.004;2023-07-30T05:25:32;16.70;99.90
10433;DHT22;5263;48.680;9.004;2023-07-30T05:27:57;16.70;99.90
10433;DHT22;5263;48.680;9.004;2023-07-30T05:30:23;16.70;99.90
10433;DHT22;5263;48.680;9.004;2023-07-30T05:32:49;16.80;99.90
10433;DHT22;5263;48.680;9.004;2023-07-30T05:35:15;16.80;99.90
10433;DHT22;5263;48.680;9.004;2023-07-30T05:37:40;16.70;99.90
10433;DHT22;5263;48.680;9.004;2023-07-30T05:40:06;16.60;99.90
10433;DHT22;5263;48.680;9.004;2023-07-30T05:42:32;16.60;99.90
10433;DHT22;5263;48.680;9.004;2023-07-30T05:44:58;16.60;99.90
10433;DHT22;5263;48.680;9.004;2023-07-30T05:47:23;16.80;99.90
10433;DHT22;5263;48.680;9.004;2023-07-30T05:49:49;16.80;99.90
10433;DHT22;5263;48.680;9.004;2023-07-30T05:52:14;16.90;99.90
10433;DHT22;5263;48.680;9.004;2023-07-30T05:54:40;16.80;99.90
10433;DHT22;5263;48.680;9.004;2023-07-30T05:57:06;16.90;99.90
10433;DHT22;5263;48.680;9.004;2023-07-30T05:59:31;16.90;99.90
10433;DHT22;5263;48.680;9.004;2023-07-30T06:01:57;16.80;99.90
10433;DHT22;5263;48.680;9.004;2023-07-30T06:04:26;16.80;99.90
10433;DHT22;5263;48.680;9.004;2023-07-30T06:06:52;16.90;99.90
10433;DHT22;5263;48.680;9.004;2023-07-30T06:09:17;17.10;99.90
10433;DHT22;5263;48.680;9.004;2023-07-30T06:11:43;17.10;99.90
10433;DHT22;5263;48.680;9.004;2023-07-30T06:14:08;17.30;99.90
10433;DHT22;5263;48.680;9.004;2023-07-30T06:16:34;17.20;99.90
10433;DHT22;5263;48.680;9.004;2023-07-30T06:19:00;17.20;99.90
10433;DHT22;5263;48.680;9.004;2023-07-30T06:21:25;17.10;99.90
10433;DHT22;5263;48.680;9.004;2023-07-30T06:23:51;17.20;99.90
10433;DHT22;5263;48.680;9.004;2023-07-30T06:26:16;17.40;99.90
10433;DHT22;5263;48.680;9.004;2023-07-30T06:28:42;17.60;99.90
10433;DHT22;5263;48.680;9.004;2023-07-30T06:31:08;17.90;99.90
10433;DHT22;5263;48.680;9.004;2023-07-30T06:33:33;17.80;99.90
10433;DHT22;5263;48.680;9.004;2023-07-30T06:35:59;17.90;99.90
10433;DHT22;5263;48.680;9.004;2023-07-30T06:38:24;18.00;99.90
10433;DHT22;5263;48.680;9.004;2023-07-30T06:40:50;18.40;99.90
10433;DHT22;5263;48.680;9.004;2023-07-30T06:43:16;18.70;99.90
10433;DHT22;5263;48.680;9.004;2023-07-30T06:45:41;18.90;99.90
10433;DHT22;5263;48.680;9.004;2023-07-30T06:48:07;18.90;99.90
10433;DHT22;5263;48.680;9.004;2023-07-30T06:50:32;18.90;99.90
10433;DHT22;5263;48.680;9.004;2023-07-30T06:52:58;18.70;99.90
10433;DHT22;5263;48.680;9.004;2023-07-30T06:55:24;18.60;99.90
10433;DHT22;5263;48.680;9.004;2023-07-30T06:57:49;18.50;99.90
10433;DHT22;5263;48.680;9.004;2023-07-30T07:00:15;18.50;99.90
10433;DHT22;5263;48.680;9.004;2023-07-30T07:02:47;18.50;99.90
10433;DHT22;5263;48.680;9.004;2023-07-30T07:05:13;18.50;99.90
10433;DHT22;5263;48.680;9.004;2023-07-30T07:07:39;18.40;99.90
10433;DHT22;5263;48.680;9.004;2023-07-30T07:10:05;18.30;99.90
10433;DHT22;5263;48.680;9.004;2023-07-30T07:12:31;18.30;99.90
10433;DHT22;5263;48.680;9.004;2023-07-30T07:14:56;18.10;99.90
10433;DHT22;5263;48.680;9.004;2023-07-30T07:17:24;17.90;99.90
10433;DHT22;5263;48.680;9.004;2023-07-30T07:19:50;18.00;99.90
10433;DHT22;5263;48.680;9.004;2023-07-30T07:22:15;17.80;99.90
10433;DHT22;5263;48.680;9.004;2023-07-30T07:24:43;17.80;99.90
10433;DHT22;5263;48.680;9.004;2023-07-30T07:27:09;17.70;99.90
10433;DHT22;5263;48.680;9.004;2023-07-30T07:29:35;17.80;99.90
10433;DHT22;5263;48.680;9.004;2023-07-30T07:32:00;17.80;99.90
10433;DHT22;5263;48.680;9.004;2023-07-30T07:34:26;18.00;99.90
10433;DHT22;5263;48.680;9.004;2023-07-30T07:36:51;17.90;99.90
10433;DHT22;5263;48.680;9.004;2023-07-30T07:39:17;17.70;99.90
10433;DHT22;5263;48.680;9.004;2023-07-30T07:41:43;17.70;99.90
10433;DHT22;5263;48.680;9.004;2023-07-30T07:44:09;17.70;99.90
10433;DHT22;5263;48.680;9.004;2023-07-30T07:46:35;17.60;99.90
10433;DHT22;5263;48.680;9.004;2023-07-30T07:49:00;17.70;99.90
10433;DHT22;5263;48.680;9.004;2023-07-30T07:51:26;17.70;99.90
10433;DHT22;5263;48.680;9.004;2023-07-30T07:53:51;17.80;99.90
10433;DHT22;5263;48.680;9.004;2023-07-30T07:56:17;18.10;99.90
10433;DHT22;5263;48.680;9.004;2023-07-30T07:58:43;18.00;99.90
10433;DHT22;5263;48.680;9.004;2023-07-30T08:01:09;18.20;99.90
10433;DHT22;5263;48.680;9.004;2023-07-30T08:03:34;18.30;99.90
10433;DHT22;5263;48.680;9.004;2023-07-30T08:06:00;18.40;99.90
10433;DHT22;5263;48.680;9.004;2023-07-30T08:08:26;18.60;99.90
10433;DHT22;5263;48.680;9.004;2023-07-30T08:10:52;18.90;99.90
10433;DHT22;5263;48.680;9.004;2023-07-30T08:13:18;19.20;99.90
10433;DHT22;5263;48.680;9.004;2023-07-30T08:15:43;19.40;99.90
10433;DHT22;5263;48.680;9.004;2023-07-30T08:18:09;19.50;99.90
10433;DHT22;5263;48.680;9.004;2023-07-30T08:20:35;19.80;99.90
10433;DHT22;5263;48.680;9.004;2023-07-30T08:23:01;20.00;99.90
10433;DHT22;5263;48.680;9.004;2023-07-30T08:25:26;20.10;99.90
10433;DHT22;5263;48.680;9.004;2023-07-30T08:27:52;20.00;99.90
10433;DHT22;5263;48.680;9.004;2023-07-30T08:30:18;20.00;99.90
10433;DHT22;5263;48.680;9.004;2023-07-30T08:32:44;20.00;99.90
10433;DHT22;5263;48.680;9.004;2023-07-30T08:35:10;20.00;99.90
10433;DHT22;5263;48.680;9.004;2023-07-30T08:37:36;20.00;99.90
10433;DHT22;5263;48.680;9.004;2023-07-30T08:40:02;19.80;99.90
10433;DHT22;5263;48.680;9.004;2023-07-30T08:42:29;19.90;99.90
10433;DHT22;5263;48.680;9.004;2023-07-30T08:44:54;19.80;99.90
10433;DHT22;5263;48.680;9.004;2023-07-30T08:47:20;20.00;99.90
10433;DHT22;5263;48.680;9.004;2023-07-30T08:49:46;20.30;99.90
10433;DHT22;5263;48.680;9.004;2023-07-30T08:52:11;20.40;99.90
10433;DHT22;5263;48.680;9.004;2023-07-30T08:54:38;20.30;99.90
10433;DHT22;5263;48.680;9.004;2023-07-30T08:57:05;20.40;99.90
10433;DHT22;5263;48.680;9.004;2023-07-30T08:59:37;20.60;99.90
10433;DHT22;5263;48.680;9.004;2023-07-30T09:02:11;20.60;99.90
10433;DHT22;5263;48.680;9.004;2023-07-30T09:04:39;20.40;99.90
10433;DHT22;5263;48.680;9.004;2023-07-30T09:07:09;20.30;99.90
10433;DHT22;5263;48.680;9.004;2023-07-30T09:09:36;20.00;99.90
10433;DHT22;5263;48.680;9.004;2023-07-30T09:12:02;19.80;99.90
10433;DHT22;5263;48.680;9.004;2023-07-30T09:14:28;19.60;99.90
10433;DHT22;5263;48.680;9.004;2023-07-30T09:16:57;19.40;99.90
10433;DHT22;5263;48.680;9.004;2023-07-30T09:19:23;19.40;99.90
10433;DHT22;5263;48.680;9.004;2023-07-30T09:21:49;19.40;99.90
10433;DHT22;5263;48.680;9.004;2023-07-30T09:24:21;19.40;99.90
10433;DHT22;5263;48.680;9.004;2023-07-30T09:26:47;19.30;99.90
10433;DHT22;5263;48.680;9.004;2023-07-30T09:29:12;19.20;99.90
10433;DHT22;5263;48.680;9.004;2023-07-30T09:31:53;19.10;99.90
10433;DHT22;5263;48.680;9.004;2023-07-30T09:34:23;19.00;99.90
10433;DHT22;5263;48.680;9.004;2023-07-30T09:36:55;19.00;99.90
10433;DHT22;5263;48.680;9.004;2023-07-30T09:39:22;19.00;99.90
10433;DHT22;5263;48.680;9.004;2023-07-30T09:41:50;19.20;99.90
10433;DHT22;5263;48.680;9.004;2023-07-30T09:44:20;19.30;99.90
10433;DHT22;5263;48.680;9.004;2023-07-30T09:46:48;19.60;99.90
10433;DHT22;5263;48.680;9.004;2023-07-30T09:49:14;19.80;99.90
10433;DHT22;5263;48.680;9.004;2023-07-30T09:51:40;19.70;99.90
10433;DHT22;5263;48.680;9.004;2023-07-30T09:54:11;19.80;99.90
10433;DHT22;5263;48.680;9.004;2023-07-30T09:56:39;20.10;99.90
10433;DHT22;5263;48.680;9.004;2023-07-30T09:59:09;20.30;99.90
10433;DHT22;5263;48.680;9.004;2023-07-30T10:01:47;20.30;99.90
10433;DHT22;5263;48.680;9.004;2023-07-30T10:04:21;20.40;99.90
10433;DHT22;5263;48.680;9.004;2023-07-30T10:07:03;20.60;99.90
10433;DHT22;5263;48.680;9.004;2023-07-30T10:09:37;20.50;99.90
10433;DHT22;5263;48.680;9.004;2023-07-30T10:12:13;20.70;99.90
10433;DHT22;5263;48.680;9.004;2023-07-30T10:14:40;21.20;99.90
10433;DHT22;5263;48.680;9.004;2023-07-30T10:17:10;21.40;99.90
10433;DHT22;5263;48.680;9.004;2023-07-30T10:19:36;21.40;99.90
10433;DHT22;5263;48.680;9.004;2023-07-30T10:24:40;21.70;99.90
10433;DHT22;5263;48.680;9.004;2023-07-30T10:27:09;21.70;99.90
10433;DHT22;5263;48.680;9.004;2023-07-30T10:29:40;21.80;99.90
10433;DHT22;5263;48.680;9.004;2023-07-30T10:32:07;21.60;99.90
10433;DHT22;5263;48.680;9.004;2023-07-30T10:34:47;22.30;99.90
10433;DHT22;5263;48.680;9.004;2023-07-30T10:37:20;23.10;99.90
10433;DHT22;5263;48.680;9.004;2023-07-30T10:39:49;23.00;99.90
10433;DHT22;5263;48.680;9.004;2023-07-30T10:42:15;22.60;99.90
10433;DHT22;5263;48.680;9.004;2023-07-30T10:44:44;24.00;99.90
10433;DHT22;5263;48.680;9.004;2023-07-30T10:47:10;25.00;99.90
10433;DHT22;5263;48.680;9.004;2023-07-30T10:49:37;24.90;99.90
10433;DHT22;5263;48.680;9.004;2023-07-30T10:52:12;25.20;99.90
10433;DHT22;5263;48.680;9.004;2023-07-30T10:54:37;25.30;99.90
10433;DHT22;5263;48.680;9.004;2023-07-30T10:57:04;26.60;99.90
10433;DHT22;5263;48.680;9.004;2023-07-30T10:59:36;27.70;98.60
10433;DHT22;5263;48.680;9.004;2023-07-30T11:02:02;26.70;98.80
10433;DHT22;5263;48.680;9.004;2023-07-30T11:04:28;27.00;98.90
10433;DHT22;5263;48.680;9.004;2023-07-30T11:06:54;27.80;97.00
10433;DHT22;5263;48.680;9.004;2023-07-30T11:09:24;27.50;96.20
10433;DHT22;5263;48.680;9.004;2023-07-30T11:11:51;27.30;98.50
10433;DHT22;5263;48.680;9.004;2023-07-30T11:14:18;26.80;96.00
10433;DHT22;5263;48.680;9.004;2023-07-30T11:16:57;26.40;97.20
10433;DHT22;5263;48.680;9.004;2023-07-30T11:19:27;25.40;98.20
10433;DHT22;5263;48.680;9.004;2023-07-30T11:21:55;26.00;97.40
10433;DHT22;5263;48.680;9.004;2023-07-30T11:24:21;27.20;97.30
10433;DHT22;5263;48.680;9.004;2023-07-30T11:26:59;27.10;95.60
10433;DHT22;5263;48.680;9.004;2023-07-30T11:29:26;27.70;94.60
10433;DHT22;5263;48.680;9.004;2023-07-30T11:31:51;27.40;94.90
10433;DHT22;5263;48.680;9.004;2023-07-30T11:34:20;27.80;94.50
10433;DHT22;5263;48.680;9.004;2023-07-30T11:36:46;27.00;94.10
10433;DHT22;5263;48.680;9.004;2023-07-30T11:39:12;27.40;95.10
10433;DHT22;5263;48.680;9.004;2023-07-30T11:41:38;27.70;93.60
10433;DHT22;5263;48.680;9.004;2023-07-30T11:44:04;28.90;92.00
10433;DHT22;5263;48.680;9.004;2023-07-30T11:46:29;27.20;94.10
10433;DHT22;5263;48.680;9.004;2023-07-30T11:49:15;26.50;94.30
10433;DHT22;5263;48.680;9.004;2023-07-30T11:51:43;25.70;94.70
10433;DHT22;5263;48.680;9.004;2023-07-30T11:54:19;26.20;95.50
10433;DHT22;5263;48.680;9.004;2023-07-30T11:56:45;27.00;95.40
10433;DHT22;5263;48.680;9.004;2023-07-30T11:59:11;27.50;95.60
10433;DHT22;5263;48.680;9.004;2023-07-30T12:01:37;26.20;98.30
10433;DHT22;5263;48.680;9.004;2023-07-30T12:04:04;25.20;99.30
10433;DHT22;5263;48.680;9.004;2023-07-30T12:06:44;23.80;99.90
10433;DHT22;5263;48.680;9.004;2023-07-30T12:09:16;23.30;99.90
10433;DHT22;5263;48.680;9.004;2023-07-30T12:11:53;22.60;99.90
10433;DHT22;5263;48.680;9.004;2023-07-30T12:14:21;22.50;99.90
10433;DHT22;5263;48.680;9.004;2023-07-30T12:16:47;22.80;99.90
10433;DHT22;5263;48.680;9.004;2023-07-30T12:19:13;22.40;99.90
10433;DHT22;5263;48.680;9.004;2023-07-30T12:21:38;22.20;99.90
10433;DHT22;5263;48.680;9.004;2023-07-30T12:24:04;22.10;99.90
10433;DHT22;5263;48.680;9.004;2023-07-30T12:26:30;22.00;99.90
10433;DHT22;5263;48.680;9.004;2023-07-30T12:28:56;21.90;99.90
10433;DHT22;5263;48.680;9.004;2023-07-30T12:31:21;22.40;99.90
10433;DHT22;5263;48.680;9.004;2023-07-30T12:33:47;23.90;99.90
10433;DHT22;5263;48.680;9.004;2023-07-30T12:36:13;26.10;99.90
10433;DHT22;5263;48.680;9.004;2023-07-30T12:38:39;25.80;99.10
10433;DHT22;5263;48.680;9.004;2023-07-30T12:41:04;24.40;99.90
10433;DHT22;5263;48.680;9.004;2023-07-30T12:43:30;23.10;99.90
10433;DHT22;5263;48.680;9.004;2023-07-30T12:45:56;22.80;99.90
10433;DHT22;5263;48.680;9.004;2023-07-30T12:48:21;22.60;99.90
10433;DHT22;5263;48.680;9.004;2023-07-30T12:50:47;22.50;99.90
10433;DHT22;5263;48.680;9.004;2023-07-30T12:53:12;22.00;99.90
10433;DHT22;5263;48.680;9.004;2023-07-30T12:55:38;21.90;99.90
10433;DHT22;5263;48.680;9.004;2023-07-30T12:58:04;23.70;99.90
10433;DHT22;5263;48.680;9.004;2023-07-30T13:00:32;24.60;99.90
10433;DHT22;5263;48.680;9.004;2023-07-30T13:02:58;24.70;99.90
10433;DHT22;5263;48.680;9.004;2023-07-30T13:05:23;24.60;99.90
10433;DHT22;5263;48.680;9.004;2023-07-30T13:07:49;26.00;99.50
10433;DHT22;5263;48.680;9.004;2023-07-30T13:10:15;25.80;98.50
10433;DHT22;5263;48.680;9.004;2023-07-30T13:12:40;27.10;97.80
10433;DHT22;5263;48.680;9.004;2023-07-30T13:15:07;28.40;95.00
10433;DHT22;5263;48.680;9.004;2023-07-30T13:17:32;26.90;94.60
10433;DHT22;5263;48.680;9.004;2023-07-30T13:19:58;25.00;97.70
10433;DHT22;5263;48.680;9.004;2023-07-30T13:22:24;24.00;99.00
10433;DHT22;5263;48.680;9.004;2023-07-30T13:24:50;23.30;99.90
10433;DHT22;5263;48.680;9.004;2023-07-30T13:27:16;23.70;99.90
10433;DHT22;5263;48.680;9.004;2023-07-30T13:29:42;24.50;99.90
10433;DHT22;5263;48.680;9.004;2023-07-30T13:32:08;25.50;99.90
10433;DHT22;5263;48.680;9.004;2023-07-30T13:34:34;25.90;98.70
10433;DHT22;5263;48.680;9.004;2023-07-30T13:37:00;26.10;97.90
10433;DHT22;5263;48.680;9.004;2023-07-30T13:39:25;27.80;94.90
10433;DHT22;5263;48.680;9.004;2023-07-30T13:41:51;26.20;94.80
10433;DHT22;5263;48.680;9.004;2023-07-30T13:44:17;25.90;95.50
10433;DHT22;5263;48.680;9.004;2023-07-30T13:46:42;25.50;96.00
10433;DHT22;5263;48.680;9.004;2023-07-30T13:49:08;24.10;97.50
10433;DHT22;5263;48.680;9.004;2023-07-30T13:51:33;24.30;98.30
10433;DHT22;5263;48.680;9.004;2023-07-30T13:54:00;24.30;98.80
10433;DHT22;5263;48.680;9.004;2023-07-30T13:56:27;23.90;99.80
10433;DHT22;5263;48.680;9.004;2023-07-30T13:58:52;24.40;99.00
10433;DHT22;5263;48.680;9.004;2023-07-30T14:01:18;23.60;98.50
10433;DHT22;5263;48.680;9.004;2023-07-30T14:03:44;24.90;98.50
10433;DHT22;5263;48.680;9.004;2023-07-30T14:06:10;25.60;97.40
10433;DHT22;5263;48.680;9.004;2023-07-30T14:08:36;26.60;96.10
10433;DHT22;5263;48.680;9.004;2023-07-30T14:11:01;26.70;94.80
10433;DHT22;5263;48.680;9.004;2023-07-30T14:13:27;27.60;93.80
10433;DHT22;5263;48.680;9.004;2023-07-30T14:15:53;27.90;92.00
10433;DHT22;5263;48.680;9.004;2023-07-30T14:18:18;27.70;91.60
10433;DHT22;5263;48.680;9.004;2023-07-30T14:20:44;26.50;92.10
10433;DHT22;5263;48.680;9.004;2023-07-30T14:23:10;26.70;93.30
10433;DHT22;5263;48.680;9.004;2023-07-30T14:25:37;27.20;94.60
10433;DHT22;5263;48.680;9.004;2023-07-30T14:28:02;27.10;92.90
10433;DHT22;5263;48.680;9.004;2023-07-30T14:30:28;27.50;93.20
10433;DHT22;5263;48.680;9.004;2023-07-30T14:32:54;27.40;92.30
10433;DHT22;5263;48.680;9.004;2023-07-30T14:35:20;27.10;92.20
10433;DHT22;5263;48.680;9.004;2023-07-30T14:37:45;27.60;92.00
10433;DHT22;5263;48.680;9.004;2023-07-30T14:40:11;28.20;90.50
10433;DHT22;5263;48.680;9.004;2023-07-30T14:42:37;28.30;90.20
10433;DHT22;5263;48.680;9.004;2023-07-30T14:45:02;27.60;90.30
10433;DHT22;5263;48.680;9.004;2023-07-30T14:47:28;27.40;90.30
10433;DHT22;5263;48.680;9.004;2023-07-30T14:49:54;27.30;90.10
10433;DHT22;5263;48.680;9.004;2023-07-30T14:52:20;27.40;90.00
10433;DHT22;5263;48.680;9.004;2023-07-30T14:54:45;27.60;87.20
10433;DHT22;5263;48.680;9.004;2023-07-30T14:57:11;27.40;88.60
10433;DHT22;5263;48.680;9.004;2023-07-30T14:59:37;27.20;88.80
10433;DHT22;5263;48.680;9.004;2023-07-30T15:02:03;27.20;89.20
10433;DHT22;5263;48.680;9.004;2023-07-30T15:04:28;26.90;89.80
10433;DHT22;5263;48.680;9.004;2023-07-30T15:06:55;27.00;90.30
10433;DHT22;5263;48.680;9.004;2023-07-30T15:09:21;26.70;90.00
10433;DHT22;5263;48.680;9.004;2023-07-30T15:11:46;26.20;90.30
10433;DHT22;5263;48.680;9.004;2023-07-30T15:14:12;25.00;91.10
10433;DHT22;5263;48.680;9.004;2023-07-30T15:16:37;24.10;93.10
10433;DHT22;5263;48.680;9.004;2023-07-30T15:19:03;23.60;93.50
10433;DHT22;5263;48.680;9.004;2023-07-30T15:21:32;23.10;95.20
10433;DHT22;5263;48.680;9.004;2023-07-30T15:23:57;22.30;95.90
10433;DHT22;5263;48.680;9.004;2023-07-30T15:26:26;21.80;96.10
10433;DHT22;5263;48.680;9.004;2023-07-30T15:28:52;21.80;96.10
10433;DHT22;5263;48.680;9.004;2023-07-30T15:31:18;21.70;96.80
10433;DHT22;5263;48.680;9.004;2023-07-30T15:33:44;21.60;96.80
10433;DHT22;5263;48.680;9.004;2023-07-30T15:36:09;21.30;96.40
10433;DHT22;5263;48.680;9.004;2023-07-30T15:38:35;21.30;96.70
10433;DHT22;5263;48.680;9.004;2023-07-30T15:41:01;21.20;96.10
10433;DHT22;5263;48.680;9.004;2023-07-30T15:43:27;21.00;96.80